sensor_id;sensor_type;location;lat;lon;timestamp;pressure;altitude;pressure_sealevel;temperature;humidity
38912;BME280;28444;48.056;14.408;2023-04-08T00:01:43;97538.69;;;6.35;67.99
38912;BME280;28444;48.056;14.408;2023-04-08T00:04:11;97538.53;;;6.33;68.02
38912;BME280;28444;48.056;14.408;2023-04-08T00:06:39;97529.44;;;6.31;67.72
38912;BME280;28444;48.056;14.408;2023-04-08T00:09:06;97526.88;;;6.25;69.08
38912;BME280;28444;48.056;14.408;2023-04-08T00:11:33;97536.09;;;6.22;68.93
38912;BME280;28444;48.056;14.408;2023-04-08T00:14:02;97532.66;;;6.21;70.03
38912;BME280;28444;48.056;14.408;2023-04-08T00:16:29;97545.31;;;6.19;69.55
38912;BME280;28444;48.056;14.408;2023-04-08T00:18:56;97540.75;;;6.14;70.33
38912;BME280;28444;48.056;14.408;2023-04-08T00:21:23;97543.53;;;6.00;71.50
38912;BME280;28444;48.056;14.408;2023-04-08T00:23:50;97550.03;;;5.97;72.21
38912;BME280;28444;48.056;14.408;2023-04-08T00:26:16;97549.00;;;5.87;73.09
38912;BME280;28444;48.056;14.408;2023-04-08T00:28:43;97547.22;;;5.90;72.72
38912;BME280;28444;48.056;14.408;2023-04-08T00:31:10;97548.91;;;5.93;72.84
38912;BME280;28444;48.056;14.408;2023-04-08T00:33:37;97554.53;;;5.95;73.55
38912;BME280;28444;48.056;14.408;2023-04-08T00:36:04;97546.38;;;5.95;73.67
38912;BME280;28444;48.056;14.408;2023-04-08T00:38:31;97548.56;;;5.96;73.52
38912;BME280;28444;48.056;14.408;2023-04-08T00:40:57;97550.06;;;5.84;73.73
38912;BME280;28444;48.056;14.408;2023-04-08T00:43:24;97550.53;;;5.75;73.48
38912;BME280;28444;48.056;14.408;2023-04-08T00:45:50;97551.88;;;5.82;73.53
38912;BME280;28444;48.056;14.408;2023-04-08T00:48:17;97556.50;;;5.94;73.21
38912;BME280;28444;48.056;14.408;2023-04-08T00:50:44;97558.38;;;5.99;72.89
38912;BME280;28444;48.056;14.408;2023-04-08T00:53:21;97556.50;;;5.94;73.12
38912;BME280;28444;48.056;14.408;2023-04-08T00:55:50;97553.38;;;5.90;73.88
38912;BME280;28444;48.056;14.408;2023-04-08T00:58:17;97551.63;;;5.93;73.40
38912;BME280;28444;48.056;14.408;2023-04-08T01:00:51;97552.19;;;5.99;72.43
38912;BME280;28444;48.056;14.408;2023-04-08T01:03:44;97539.22;;;6.05;71.67
38912;BME280;28444;48.056;14.408;2023-04-08T01:09:12;97539.75;;;6.03;70.77
38912;BME280;28444;48.056;14.408;2023-04-08T01:11:42;97535.78;;;6.05;71.08
38912;BME280;28444;48.056;14.408;2023-04-08T01:14:11;97540.16;;;6.08;70.72
38912;BME280;28444;48.056;14.408;2023-04-08T01:16:41;97544.53;;;6.11;70.66
38912;BME280;28444;48.056;14.408;2023-04-08T01:19:17;97557.28;;;6.02;71.60
38912;BME280;28444;48.056;14.408;2023-04-08T01:21:48;97551.69;;;6.00;71.41
38912;BME280;28444;48.056;14.408;2023-04-08T01:24:22;97552.00;;;5.97;72.01
38912;BME280;28444;48.056;14.408;2023-04-08T01:26:52;97535.19;;;5.98;71.41
38912;BME280;28444;48.056;14.408;2023-04-08T01:29:20;97543.16;;;5.96;71.79
38912;BME280;28444;48.056;14.408;2023-04-08T01:31:47;97547.94;;;5.90;72.79
38912;BME280;28444;48.056;14.408;2023-04-08T01:34:14;97542.09;;;5.99;72.25
38912;BME280;28444;48.056;14.408;2023-04-08T01:36:44;97532.84;;;6.02;72.04
38912;BME280;28444;48.056;14.408;2023-04-08T01:39:13;97522.59;;;6.09;72.05
38912;BME280;28444;48.056;14.408;2023-04-08T01:41:42;97533.19;;;5.99;72.10
38912;BME280;28444;48.056;14.408;2023-04-08T01:44:10;97538.44;;;5.97;72.09
38912;BME280;28444;48.056;14.408;2023-04-08T01:46:40;97530.28;;;5.97;71.74
38912;BME280;28444;48.056;14.408;2023-04-08T01:49:08;97538.41;;;5.76;73.73
38912;BME280;28444;48.056;14.408;2023-04-08T01:51:36;97534.31;;;5.83;74.04
38912;BME280;28444;48.056;14.408;2023-04-08T01:54:04;97531.72;;;5.77;73.57
38912;BME280;28444;48.056;14.408;2023-04-08T01:56:35;97531.00;;;5.76;73.28
38912;BME280;28444;48.056;14.408;2023-04-08T01:59:05;97525.38;;;5.74;73.50
38912;BME280;28444;48.056;14.408;2023-04-08T02:01:35;97531.72;;;5.77;73.11
38912;BME280;28444;48.056;14.408;2023-04-08T02:04:04;97536.31;;;5.82;72.85
38912;BME280;28444;48.056;14.408;2023-04-08T02:06:32;97533.78;;;5.84;73.87
38912;BME280;28444;48.056;14.408;2023-04-08T02:09:00;97535.69;;;5.76;73.58
38912;BME280;28444;48.056;14.408;2023-04-08T02:11:27;97533.72;;;5.76;73.91
38912;BME280;28444;48.056;14.408;2023-04-08T02:13:54;97527.09;;;5.85;74.17
38912;BME280;28444;48.056;14.408;2023-04-08T02:16:33;97523.78;;;5.79;73.83
38912;BME280;28444;48.056;14.408;2023-04-08T02:19:10;97525.56;;;5.76;74.62
38912;BME280;28444;48.056;14.408;2023-04-08T02:21:45;97531.94;;;5.79;74.52
38912;BME280;28444;48.056;14.408;2023-04-08T02:24:13;97531.28;;;5.86;74.53
38912;BME280;28444;48.056;14.408;2023-04-08T02:26:42;97539.75;;;5.83;74.66
38912;BME280;28444;48.056;14.408;2023-04-08T02:29:14;97541.06;;;5.89;75.13
38912;BME280;28444;48.056;14.408;2023-04-08T02:31:42;97540.53;;;5.91;74.22
38912;BME280;28444;48.056;14.408;2023-04-08T02:34:10;97541.59;;;5.88;73.85
38912;BME280;28444;48.056;14.408;2023-04-08T02:36:37;97539.16;;;5.97;73.90
38912;BME280;28444;48.056;14.408;2023-04-08T02:39:08;97542.75;;;5.92;74.24
38912;BME280;28444;48.056;14.408;2023-04-08T02:41:35;97548.19;;;5.92;74.76
38912;BME280;28444;48.056;14.408;2023-04-08T02:44:01;97540.22;;;5.94;75.17
38912;BME280;28444;48.056;14.408;2023-04-08T02:46:28;97540.84;;;5.87;75.06
38912;BME280;28444;48.056;14.408;2023-04-08T02:48:55;97557.00;;;5.72;75.86
38912;BME280;28444;48.056;14.408;2023-04-08T02:51:21;97571.31;;;5.72;77.14
38912;BME280;28444;48.056;14.408;2023-04-08T02:53:48;97563.97;;;5.60;77.13
38912;BME280;28444;48.056;14.408;2023-04-08T02:56:15;97560.63;;;5.53;77.25
38912;BME280;28444;48.056;14.408;2023-04-08T02:58:42;97558.97;;;5.50;77.21
38912;BME280;28444;48.056;14.408;2023-04-08T03:01:08;97558.94;;;5.64;77.06
38912;BME280;28444;48.056;14.408;2023-04-08T03:03:35;97568.19;;;5.68;76.83
38912;BME280;28444;48.056;14.408;2023-04-08T03:06:02;97566.09;;;5.74;77.29
38912;BME280;28444;48.056;14.408;2023-04-08T03:08:29;97565.09;;;5.64;78.10
38912;BME280;28444;48.056;14.408;2023-04-08T03:10:56;97571.59;;;5.48;78.74
38912;BME280;28444;48.056;14.408;2023-04-08T03:13:22;97565.84;;;5.51;78.32
38912;BME280;28444;48.056;14.408;2023-04-08T03:15:49;97566.28;;;5.55;77.25
38912;BME280;28444;48.056;14.408;2023-04-08T03:18:16;97569.22;;;5.44;77.32
38912;BME280;28444;48.056;14.408;2023-04-08T03:20:43;97566.38;;;5.50;78.43
38912;BME280;28444;48.056;14.408;2023-04-08T03:23:10;97572.94;;;5.54;79.57
38912;BME280;28444;48.056;14.408;2023-04-08T03:25:36;97568.13;;;5.61;79.90
38912;BME280;28444;48.056;14.408;2023-04-08T03:28:03;97560.91;;;5.63;79.51
38912;BME280;28444;48.056;14.408;2023-04-08T03:30:30;97564.75;;;5.68;79.53
38912;BME280;28444;48.056;14.408;2023-04-08T03:32:57;97566.34;;;5.63;80.74
38912;BME280;28444;48.056;14.408;2023-04-08T03:35:24;97559.66;;;5.64;79.95
38912;BME280;28444;48.056;14.408;2023-04-08T03:37:50;97566.69;;;5.60;79.50
38912;BME280;28444;48.056;14.408;2023-04-08T03:40:17;97568.63;;;5.59;79.93
38912;BME280;28444;48.056;14.408;2023-04-08T03:42:44;97571.75;;;5.42;80.39
38912;BME280;28444;48.056;14.408;2023-04-08T03:45:11;97578.16;;;5.18;80.80
38912;BME280;28444;48.056;14.408;2023-04-08T03:47:37;97575.94;;;5.30;81.04
38912;BME280;28444;48.056;14.408;2023-04-08T03:50:05;97582.34;;;5.19;81.08
38912;BME280;28444;48.056;14.408;2023-04-08T03:52:31;97581.16;;;5.28;80.88
38912;BME280;28444;48.056;14.408;2023-04-08T03:54:58;97585.22;;;5.35;80.80
38912;BME280;28444;48.056;14.408;2023-04-08T03:57:25;97588.25;;;5.31;80.94
38912;BME280;28444;48.056;14.408;2023-04-08T03:59:51;97588.91;;;5.24;81.33
38912;BME280;28444;48.056;14.408;2023-04-08T04:02:18;97600.34;;;5.30;81.05
38912;BME280;28444;48.056;14.408;2023-04-08T04:04:45;97598.38;;;5.17;82.16
38912;BME280;28444;48.056;14.408;2023-04-08T04:07:12;97602.56;;;5.18;82.17
38912;BME280;28444;48.056;14.408;2023-04-08T04:09:38;97610.69;;;5.18;82.72
38912;BME280;28444;48.056;14.408;2023-04-08T04:12:05;97611.50;;;5.26;82.48
38912;BME280;28444;48.056;14.408;2023-04-08T04:14:32;97619.53;;;5.19;83.16
38912;BME280;28444;48.056;14.408;2023-04-08T04:16:58;97618.09;;;5.18;82.87
38912;BME280;28444;48.056;14.408;2023-04-08T04:19:29;97619.75;;;5.21;82.76
38912;BME280;28444;48.056;14.408;2023-04-08T04:21:56;97628.00;;;5.15;83.70
38912;BME280;28444;48.056;14.408;2023-04-08T04:24:23;97628.53;;;5.14;84.04
38912;BME280;28444;48.056;14.408;2023-04-08T04:26:50;97631.34;;;5.21;84.36
38912;BME280;28444;48.056;14.408;2023-04-08T04:29:16;97637.28;;;5.20;83.69
38912;BME280;28444;48.056;14.408;2023-04-08T04:31:43;97644.56;;;5.25;84.54
38912;BME280;28444;48.056;14.408;2023-04-08T04:34:10;97645.94;;;5.18;85.11
38912;BME280;28444;48.056;14.408;2023-04-08T04:36:37;97654.38;;;5.15;85.84
38912;BME280;28444;48.056;14.408;2023-04-08T04:39:03;97649.59;;;5.21;84.82
38912;BME280;28444;48.056;14.408;2023-04-08T04:41:30;97655.09;;;5.15;85.59
38912;BME280;28444;48.056;14.408;2023-04-08T04:43:57;97653.47;;;4.99;86.03
38912;BME280;28444;48.056;14.408;2023-04-08T04:46:23;97659.38;;;5.11;86.36
38912;BME280;28444;48.056;14.408;2023-04-08T04:48:50;97656.50;;;5.09;86.75
38912;BME280;28444;48.056;14.408;2023-04-08T04:51:17;97658.97;;;5.06;86.54
38912;BME280;28444;48.056;14.408;2023-04-08T04:53:44;97658.25;;;5.06;86.84
38912;BME280;28444;48.056;14.408;2023-04-08T04:56:11;97657.31;;;5.03;87.11
38912;BME280;28444;48.056;14.408;2023-04-08T04:58:37;97656.81;;;5.05;88.09
38912;BME280;28444;48.056;14.408;2023-04-08T05:01:04;97668.16;;;5.17;88.20
38912;BME280;28444;48.056;14.408;2023-04-08T05:03:31;97670.34;;;5.05;88.50
38912;BME280;28444;48.056;14.408;2023-04-08T05:05:58;97667.75;;;5.13;88.51
38912;BME280;28444;48.056;14.408;2023-04-08T05:08:24;97671.09;;;5.05;88.09
38912;BME280;28444;48.056;14.408;2023-04-08T05:10:53;97679.31;;;5.00;88.78
38912;BME280;28444;48.056;14.408;2023-04-08T05:13:21;97678.03;;;5.01;88.65
38912;BME280;28444;48.056;14.408;2023-04-08T05:15:48;97676.81;;;5.02;89.46
38912;BME280;28444;48.056;14.408;2023-04-08T05:18:15;97684.94;;;5.02;89.08
38912;BME280;28444;48.056;14.408;2023-04-08T05:20:41;97680.34;;;5.10;89.10
38912;BME280;28444;48.056;14.408;2023-04-08T05:23:08;97686.63;;;5.05;89.18
38912;BME280;28444;48.056;14.408;2023-04-08T05:25:35;97691.50;;;5.06;89.44
38912;BME280;28444;48.056;14.408;2023-04-08T05:28:01;97690.88;;;5.14;89.36
38912;BME280;28444;48.056;14.408;2023-04-08T05:30:28;97695.03;;;5.15;88.54
38912;BME280;28444;48.056;14.408;2023-04-08T05:32:55;97691.63;;;5.27;88.29
38912;BME280;28444;48.056;14.408;2023-04-08T05:35:25;97698.50;;;5.02;88.62
38912;BME280;28444;48.056;14.408;2023-04-08T05:37:52;97703.06;;;4.80;89.46
38912;BME280;28444;48.056;14.408;2023-04-08T05:40:19;97709.84;;;4.87;90.58
38912;BME280;28444;48.056;14.408;2023-04-08T05:42:48;97706.72;;;4.96;90.42
38912;BME280;28444;48.056;14.408;2023-04-08T05:45:15;97705.78;;;4.80;88.81
38912;BME280;28444;48.056;14.408;2023-04-08T05:47:42;97710.22;;;4.65;90.59
38912;BME280;28444;48.056;14.408;2023-04-08T05:50:09;97714.16;;;4.64;90.77
38912;BME280;28444;48.056;14.408;2023-04-08T05:52:40;97715.25;;;4.74;89.56
38912;BME280;28444;48.056;14.408;2023-04-08T05:55:07;97713.97;;;4.75;90.13
38912;BME280;28444;48.056;14.408;2023-04-08T05:57:34;97725.84;;;4.72;90.30
38912;BME280;28444;48.056;14.408;2023-04-08T06:00:01;97721.28;;;4.67;90.53
38912;BME280;28444;48.056;14.408;2023-04-08T06:02:27;97723.25;;;4.66;91.33
38912;BME280;28444;48.056;14.408;2023-04-08T06:04:54;97726.16;;;4.68;91.65
38912;BME280;28444;48.056;14.408;2023-04-08T06:07:21;97722.22;;;4.69;91.50
38912;BME280;28444;48.056;14.408;2023-04-08T06:09:47;97730.34;;;4.69;90.36
38912;BME280;28444;48.056;14.408;2023-04-08T06:12:14;97733.88;;;4.64;90.71
38912;BME280;28444;48.056;14.408;2023-04-08T06:14:41;97737.56;;;4.80;90.95
38912;BME280;28444;48.056;14.408;2023-04-08T06:17:07;97744.34;;;4.87;90.53
38912;BME280;28444;48.056;14.408;2023-04-08T06:19:34;97737.16;;;4.89;89.64
38912;BME280;28444;48.056;14.408;2023-04-08T06:22:01;97738.63;;;4.90;90.43
38912;BME280;28444;48.056;14.408;2023-04-08T06:24:27;97736.84;;;4.93;89.70
38912;BME280;28444;48.056;14.408;2023-04-08T06:26:55;97741.22;;;4.96;90.29
38912;BME280;28444;48.056;14.408;2023-04-08T06:29:22;97739.34;;;4.91;90.22
38912;BME280;28444;48.056;14.408;2023-04-08T06:31:49;97739.34;;;4.91;91.36
38912;BME280;28444;48.056;14.408;2023-04-08T06:34:16;97746.22;;;4.92;89.77
38912;BME280;28444;48.056;14.408;2023-04-08T06:36:43;97745.59;;;4.86;88.82
38912;BME280;28444;48.056;14.408;2023-04-08T06:39:09;97752.19;;;4.90;89.85
38912;BME280;28444;48.056;14.408;2023-04-08T06:41:36;97746.94;;;4.92;89.92
38912;BME280;28444;48.056;14.408;2023-04-08T06:44:03;97751.94;;;4.88;90.07
38912;BME280;28444;48.056;14.408;2023-04-08T06:46:30;97749.66;;;4.92;90.67
38912;BME280;28444;48.056;14.408;2023-04-08T06:48:56;97754.44;;;4.86;89.03
38912;BME280;28444;48.056;14.408;2023-04-08T06:51:23;97751.00;;;4.86;87.75
38912;BME280;28444;48.056;14.408;2023-04-08T06:53:49;97755.38;;;4.89;87.33
38912;BME280;28444;48.056;14.408;2023-04-08T06:56:16;97755.81;;;4.93;88.35
38912;BME280;28444;48.056;14.408;2023-04-08T06:58:43;97761.34;;;5.00;88.79
38912;BME280;28444;48.056;14.408;2023-04-08T07:01:10;97754.69;;;5.01;89.71
38912;BME280;28444;48.056;14.408;2023-04-08T07:03:36;97748.53;;;5.01;89.46
38912;BME280;28444;48.056;14.408;2023-04-08T07:06:03;97754.25;;;4.97;88.76
38912;BME280;28444;48.056;14.408;2023-04-08T07:08:30;97763.13;;;4.98;89.49
38912;BME280;28444;48.056;14.408;2023-04-08T07:10:57;97767.59;;;4.95;88.35
38912;BME280;28444;48.056;14.408;2023-04-08T07:13:24;97776.69;;;4.98;89.62
38912;BME280;28444;48.056;14.408;2023-04-08T07:15:51;97770.63;;;4.92;89.00
38912;BME280;28444;48.056;14.408;2023-04-08T07:18:17;97776.22;;;4.94;89.18
38912;BME280;28444;48.056;14.408;2023-04-08T07:20:49;97774.06;;;4.92;90.34
38912;BME280;28444;48.056;14.408;2023-04-08T07:23:16;97763.34;;;5.00;89.48
38912;BME280;28444;48.056;14.408;2023-04-08T07:25:43;97772.50;;;4.97;89.82
38912;BME280;28444;48.056;14.408;2023-04-08T07:28:09;97768.56;;;4.98;89.17
38912;BME280;28444;48.056;14.408;2023-04-08T07:30:36;97779.28;;;5.03;89.47
38912;BME280;28444;48.056;14.408;2023-04-08T07:33:03;97783.91;;;5.09;88.95
38912;BME280;28444;48.056;14.408;2023-04-08T07:35:30;97780.56;;;5.16;88.98
38912;BME280;28444;48.056;14.408;2023-04-08T07:37:57;97786.91;;;5.18;88.24
38912;BME280;28444;48.056;14.408;2023-04-08T07:40:24;97780.25;;;5.19;87.94
38912;BME280;28444;48.056;14.408;2023-04-08T07:42:50;97788.25;;;5.12;88.26
38912;BME280;28444;48.056;14.408;2023-04-08T07:45:18;97789.75;;;5.13;87.55
38912;BME280;28444;48.056;14.408;2023-04-08T07:47:45;97786.19;;;5.18;87.10
38912;BME280;28444;48.056;14.408;2023-04-08T07:50:13;97794.75;;;5.22;86.66
38912;BME280;28444;48.056;14.408;2023-04-08T07:52:39;97794.75;;;5.22;87.04
38912;BME280;28444;48.056;14.408;2023-04-08T07:55:06;97796.66;;;5.27;87.37
38912;BME280;28444;48.056;14.408;2023-04-08T07:57:33;97795.56;;;5.30;87.76
38912;BME280;28444;48.056;14.408;2023-04-08T08:00:00;97794.75;;;5.22;89.20
38912;BME280;28444;48.056;14.408;2023-04-08T08:02:27;97797.25;;;5.20;88.67
38912;BME280;28444;48.056;14.408;2023-04-08T08:04:54;97801.81;;;5.12;89.06
38912;BME280;28444;48.056;14.408;2023-04-08T08:07:20;97805.81;;;5.24;89.25
38912;BME280;28444;48.056;14.408;2023-04-08T08:09:47;97801.75;;;5.30;89.62
38912;BME280;28444;48.056;14.408;2023-04-08T08:12:16;97807.59;;;5.35;89.43
38912;BME280;28444;48.056;14.408;2023-04-08T08:14:42;97804.78;;;5.40;88.46
38912;BME280;28444;48.056;14.408;2023-04-08T08:17:09;97805.94;;;5.45;89.56
38912;BME280;28444;48.056;14.408;2023-04-08T08:19:36;97808.00;;;5.39;88.83
38912;BME280;28444;48.056;14.408;2023-04-08T08:22:03;97802.59;;;5.39;88.88
38912;BME280;28444;48.056;14.408;2023-04-08T08:24:30;97821.56;;;5.39;89.58
38912;BME280;28444;48.056;14.408;2023-04-08T08:26:56;97810.94;;;5.41;89.65
38912;BME280;28444;48.056;14.408;2023-04-08T08:29:23;97816.34;;;5.41;89.64
38912;BME280;28444;48.056;14.408;2023-04-08T08:31:50;97830.13;;;5.43;89.55
38912;BME280;28444;48.056;14.408;2023-04-08T08:34:17;97825.03;;;5.39;90.66
38912;BME280;28444;48.056;14.408;2023-04-08T08:36:44;97822.19;;;5.31;90.34
38912;BME280;28444;48.056;14.408;2023-04-08T08:39:10;97832.31;;;5.44;90.75
38912;BME280;28444;48.056;14.408;2023-04-08T08:41:37;97829.41;;;5.42;91.36
38912;BME280;28444;48.056;14.408;2023-04-08T08:44:06;97825.25;;;5.41;92.28
38912;BME280;28444;48.056;14.408;2023-04-08T08:46:33;97829.06;;;5.32;91.51
38912;BME280;28444;48.056;14.408;2023-04-08T08:49:00;97834.00;;;5.34;90.89
38912;BME280;28444;48.056;14.408;2023-04-08T08:51:27;97831.16;;;5.40;90.15
38912;BME280;28444;48.056;14.408;2023-04-08T08:53:55;97834.41;;;5.38;90.53
38912;BME280;28444;48.056;14.408;2023-04-08T08:56:21;97839.09;;;5.38;90.14
38912;BME280;28444;48.056;14.408;2023-04-08T08:58:48;97841.06;;;5.37;90.36
38912;BME280;28444;48.056;14.408;2023-04-08T09:01:35;97844.19;;;5.28;89.05
38912;BME280;28444;48.056;14.408;2023-04-08T09:04:11;97843.25;;;5.25;89.44
38912;BME280;28444;48.056;14.408;2023-04-08T09:06:40;97847.94;;;5.25;90.62
38912;BME280;28444;48.056;14.408;2023-04-08T09:09:07;97843.44;;;5.14;89.86
38912;BME280;28444;48.056;14.408;2023-04-08T09:11:42;97844.09;;;4.88;91.67
38912;BME280;28444;48.056;14.408;2023-04-08T09:14:22;97850.97;;;4.89;92.17
38912;BME280;28444;48.056;14.408;2023-04-08T09:16:50;97845.84;;;4.86;92.43
38912;BME280;28444;48.056;14.408;2023-04-08T09:19:17;97855.16;;;4.90;92.24
38912;BME280;28444;48.056;14.408;2023-04-08T09:21:44;97853.31;;;4.98;92.94
38912;BME280;28444;48.056;14.408;2023-04-08T09:24:27;97857.91;;;5.03;92.68
38912;BME280;28444;48.056;14.408;2023-04-08T09:26:54;97863.75;;;5.07;92.54
38912;BME280;28444;48.056;14.408;2023-04-08T09:29:25;97863.97;;;5.10;92.74
38912;BME280;28444;48.056;14.408;2023-04-08T09:31:58;97866.28;;;5.19;91.57
38912;BME280;28444;48.056;14.408;2023-04-08T09:34:27;97862.22;;;5.25;90.47
38912;BME280;28444;48.056;14.408;2023-04-08T09:36:54;97868.81;;;5.30;90.60
38912;BME280;28444;48.056;14.408;2023-04-08T09:39:21;97875.84;;;5.06;90.81
38912;BME280;28444;48.056;14.408;2023-04-08T09:41:50;97871.44;;;5.03;91.91
38912;BME280;28444;48.056;14.408;2023-04-08T09:44:19;97872.47;;;5.00;93.26
38912;BME280;28444;48.056;14.408;2023-04-08T09:49:26;97875.19;;;5.00;93.77
38912;BME280;28444;48.056;14.408;2023-04-08T09:52:06;97870.72;;;5.03;93.82
38912;BME280;28444;48.056;14.408;2023-04-08T09:54:53;97878.03;;;5.08;93.84
38912;BME280;28444;48.056;14.408;2023-04-08T10:00:13;97876.97;;;4.79;94.20
38912;BME280;28444;48.056;14.408;2023-04-08T10:05:36;97880.13;;;5.02;91.99
38912;BME280;28444;48.056;14.408;2023-04-08T10:08:04;97883.19;;;4.93;94.00
38912;BME280;28444;48.056;14.408;2023-04-08T10:10:33;97890.41;;;4.90;94.81
38912;BME280;28444;48.056;14.408;2023-04-08T10:13:03;97889.47;;;5.01;93.24
38912;BME280;28444;48.056;14.408;2023-04-08T10:15:31;97891.84;;;4.91;93.92
38912;BME280;28444;48.056;14.408;2023-04-08T10:20:49;97886.47;;;5.04;92.34
38912;BME280;28444;48.056;14.408;2023-04-08T10:23:17;97887.59;;;4.96;93.21
38912;BME280;28444;48.056;14.408;2023-04-08T10:25:45;97885.09;;;4.98;94.09
38912;BME280;28444;48.056;14.408;2023-04-08T10:28:23;97892.94;;;5.01;93.30
38912;BME280;28444;48.056;14.408;2023-04-08T10:30:54;97889.16;;;5.04;93.24
38912;BME280;28444;48.056;14.408;2023-04-08T10:33:32;97895.50;;;4.94;92.41
38912;BME280;28444;48.056;14.408;2023-04-08T10:36:10;97896.25;;;4.94;93.63
38912;BME280;28444;48.056;14.408;2023-04-08T10:38:38;97891.97;;;4.99;93.35
38912;BME280;28444;48.056;14.408;2023-04-08T10:41:05;97885.22;;;5.05;94.01
38912;BME280;28444;48.056;14.408;2023-04-08T10:43:35;97891.50;;;5.14;92.50
38912;BME280;28444;48.056;14.408;2023-04-08T10:46:02;97885.78;;;5.17;91.85
38912;BME280;28444;48.056;14.408;2023-04-08T10:48:30;97892.41;;;5.03;93.17
38912;BME280;28444;48.056;14.408;2023-04-08T10:51:00;97893.25;;;5.11;92.04
38912;BME280;28444;48.056;14.408;2023-04-08T10:53:31;97888.66;;;5.06;92.84
38912;BME280;28444;48.056;14.408;2023-04-08T10:56:17;97891.59;;;5.08;93.58
38912;BME280;28444;48.056;14.408;2023-04-08T10:58:52;97897.19;;;5.29;92.69
38912;BME280;28444;48.056;14.408;2023-04-08T11:01:21;97889.03;;;5.29;91.91
38912;BME280;28444;48.056;14.408;2023-04-08T11:03:48;97897.00;;;5.40;91.01
38912;BME280;28444;48.056;14.408;2023-04-08T11:06:16;97890.50;;;5.30;90.56
38912;BME280;28444;48.056;14.408;2023-04-08T11:08:43;97889.88;;;5.24;91.97
38912;BME280;28444;48.056;14.408;2023-04-08T11:11:10;97894.16;;;5.19;92.63
38912;BME280;28444;48.056;14.408;2023-04-08T11:13:57;97891.97;;;5.31;94.02
38912;BME280;28444;48.056;14.408;2023-04-08T11:16:25;97884.69;;;5.39;92.07
38912;BME280;28444;48.056;14.408;2023-04-08T11:18:53;97894.63;;;5.50;92.38
38912;BME280;28444;48.056;14.408;2023-04-08T11:21:24;97899.25;;;5.68;91.79
38912;BME280;28444;48.056;14.408;2023-04-08T11:23:51;97895.88;;;5.62;90.60
38912;BME280;28444;48.056;14.408;2023-04-08T11:26:19;97897.06;;;5.67;90.80
38912;BME280;28444;48.056;14.408;2023-04-08T11:28:46;97901.63;;;5.72;91.51
38912;BME280;28444;48.056;14.408;2023-04-08T11:31:20;97899.16;;;5.74;89.94
38912;BME280;28444;48.056;14.408;2023-04-08T11:33:52;97897.97;;;5.56;91.07
38912;BME280;28444;48.056;14.408;2023-04-08T11:36:19;97906.72;;;5.62;90.32
38912;BME280;28444;48.056;14.408;2023-04-08T11:38:47;97902.47;;;5.67;90.98
38912;BME280;28444;48.056;14.408;2023-04-08T11:41:14;97905.19;;;5.67;90.73
38912;BME280;28444;48.056;14.408;2023-04-08T11:43:54;97903.09;;;5.73;90.15
38912;BME280;28444;48.056;14.408;2023-04-08T11:46:22;97904.03;;;5.62;91.36
38912;BME280;28444;48.056;14.408;2023-04-08T11:49:06;97906.22;;;5.64;92.43
38912;BME280;28444;48.056;14.408;2023-04-08T11:51:34;97904.66;;;5.68;93.03
38912;BME280;28444;48.056;14.408;2023-04-08T11:54:04;97911.53;;;5.69;92.49
38912;BME280;28444;48.056;14.408;2023-04-08T11:56:44;97904.47;;;5.79;92.07
38912;BME280;28444;48.056;14.408;2023-04-08T11:59:11;97899.56;;;5.91;93.01
38912;BME280;28444;48.056;14.408;2023-04-08T12:01:38;97902.72;;;5.95;92.85
38912;BME280;28444;48.056;14.408;2023-04-08T12:04:04;97899.81;;;5.93;92.38
38912;BME280;28444;48.056;14.408;2023-04-08T12:06:32;97897.28;;;5.95;93.09
38912;BME280;28444;48.056;14.408;2023-04-08T12:08:59;97902.19;;;5.97;92.59
38912;BME280;28444;48.056;14.408;2023-04-08T12:11:46;97903.25;;;5.94;91.99
38912;BME280;28444;48.056;14.408;2023-04-08T12:14:13;97898.44;;;6.00;90.54
38912;BME280;28444;48.056;14.408;2023-04-08T12:16:40;97903.66;;;5.98;90.52
38912;BME280;28444;48.056;14.408;2023-04-08T12:19:07;97900.81;;;5.64;92.01
38912;BME280;28444;48.056;14.408;2023-04-08T12:21:34;97905.16;;;5.53;93.55
38912;BME280;28444;48.056;14.408;2023-04-08T12:24:01;97905.69;;;5.52;93.51
38912;BME280;28444;48.056;14.408;2023-04-08T12:26:28;97904.56;;;5.61;95.13
38912;BME280;28444;48.056;14.408;2023-04-08T12:28:54;97910.66;;;5.48;92.81
38912;BME280;28444;48.056;14.408;2023-04-08T12:31:21;97907.84;;;5.40;94.80
38912;BME280;28444;48.056;14.408;2023-04-08T12:33:49;97910.38;;;5.51;95.35
38912;BME280;28444;48.056;14.408;2023-04-08T12:36:16;97911.75;;;5.58;93.70
38912;BME280;28444;48.056;14.408;2023-04-08T12:38:43;97909.56;;;5.70;93.00
38912;BME280;28444;48.056;14.408;2023-04-08T12:41:09;97910.41;;;5.91;92.40
38912;BME280;28444;48.056;14.408;2023-04-08T12:43:36;97918.50;;;5.97;93.32
38912;BME280;28444;48.056;14.408;2023-04-08T12:46:04;97916.38;;;6.16;90.00
38912;BME280;28444;48.056;14.408;2023-04-08T12:48:31;97908.25;;;6.16;89.90
38912;BME280;28444;48.056;14.408;2023-04-08T12:50:58;97910.97;;;6.30;89.96
38912;BME280;28444;48.056;14.408;2023-04-08T12:53:25;97904.38;;;6.25;91.33
38912;BME280;28444;48.056;14.408;2023-04-08T12:55:51;97912.75;;;6.14;90.56
38912;BME280;28444;48.056;14.408;2023-04-08T12:58:23;97917.97;;;6.12;90.01
38912;BME280;28444;48.056;14.408;2023-04-08T13:00:53;97914.41;;;6.17;91.23
38912;BME280;28444;48.056;14.408;2023-04-08T13:03:20;97913.38;;;6.07;90.96
38912;BME280;28444;48.056;14.408;2023-04-08T13:05:47;97914.31;;;5.96;91.93
38912;BME280;28444;48.056;14.408;2023-04-08T13:08:13;97914.69;;;5.87;93.04
38912;BME280;28444;48.056;14.408;2023-04-08T13:10:41;97915.59;;;5.63;92.23
38912;BME280;28444;48.056;14.408;2023-04-08T13:13:08;97909.22;;;5.47;93.26
38912;BME280;28444;48.056;14.408;2023-04-08T13:15:35;97911.19;;;5.46;93.62
38912;BME280;28444;48.056;14.408;2023-04-08T13:18:02;97909.03;;;5.45;93.26
38912;BME280;28444;48.056;14.408;2023-04-08T13:20:30;97916.47;;;5.71;92.96